Flight Track Log - Related Links

Times and Time Zones

All times are in EDT time to prevent confusion due to time zone crossing. See the RAX44 flight status page for this flight to view local times or setup timezone preferences in your user account.


Time Position Orientation Groundspeed Altitude Reporting Facility
EDT Latitude Longitude Course Direction KTS MPH feet Rate Location/Type
Thu 12:42:11 PM 41.6378 -86.3922 196° South 226 260 5,600  Level Chicago Center
Thu 12:43:13 PM 41.5689 -86.3856 176° South 255 293 7,900 2,419 Climbing Chicago Center
Thu 12:44:15 PM 41.4933 -86.3744 174° South 272 313 10,600 2,855 Climbing Chicago Center
Thu 12:45:17 PM 41.3992 -86.3628 175° South 284 327 13,800 2,710 Climbing Chicago Center
Thu 12:46:19 PM 41.3331 -86.4181 212° Southwest 286 329 16,200 2,468 Climbing Chicago Center
Thu 12:47:21 PM 41.2836 -86.5017 232° Southwest 288 331 18,900 2,371 Climbing Chicago Center
Thu 12:48:23 PM 41.2314 -86.5811 229° Southwest 287 330 21,100 1,887 Climbing Chicago Center
Thu 12:49:25 PM 41.1731 -86.6608 226° Southwest 297 342 22,800 1,548 Climbing Chicago Center
Thu 12:50:27 PM 41.1067 -86.7481 225° Southwest 325 374 24,300 1,548 Climbing Chicago Center
Thu 12:51:29 PM 41.0306 -86.8603 228° Southwest 341 392 26,000 1,355 Climbing Chicago Center
Thu 12:52:31 PM 40.9661 -86.9589 229° Southwest 353 406 27,100 968 Climbing Chicago Center
Thu 12:53:33 PM 40.8989 -87.0600 229° Southwest 365 420 28,000 871 Climbing Chicago Center
Thu 12:54:35 PM 40.8292 -87.1658 229° Southwest 379 436 28,900 768 Climbing Chicago Center
Thu 12:55:38 PM 40.7550 -87.2714 227° Southwest 391 450 29,600 720 Climbing Chicago Center
Thu 12:56:40 PM 40.6783 -87.3789 227° Southwest 402 463 30,400 871 Climbing Chicago Center
Thu 12:57:42 PM 40.5878 -87.5067 227° Southwest 399 459 31,400 823 Climbing Chicago Center
Thu 12:58:44 PM 40.5242 -87.6247 235° Southwest 394 453 32,100 677 Climbing Chicago Center
Thu 12:59:46 PM 40.4658 -87.7456 238° Southwest 393 452 32,800 677 Climbing Chicago Center
Thu 01:00:48 PM 40.4081 -87.8697 239° Southwest 396 456 33,500 774 Climbing Chicago Center
Thu 01:01:50 PM 40.3372 -87.9811 230° Southwest 399 459 34,400 919 Climbing Chicago Center
Thu 01:02:52 PM 40.2422 -88.1081 226° Southwest 407 468 35,400 726 Climbing Chicago Center
Thu 01:03:54 PM 40.1708 -88.2017 225° Southwest 412 474 35,900 532 Climbing Chicago Center
Thu 01:04:56 PM 40.0886 -88.3081 225° Southwest 414 476 36,500 550 Climbing Chicago Center
Thu 01:05:54 PM 40.0056 -88.4178 225° Southwest 417 480 37,000 400 Climbing Kansas City Center
Thu 01:06:56 PM 39.9247 -88.5286 226° Southwest 417 480 37,300 145 Climbing Kansas City Center
Thu 01:07:58 PM 39.8425 -88.6422 227° Southwest 425 489 37,300 339 Level Kansas City Center
Thu 01:09:00 PM 39.7433 -88.7800 227° Southwest 431 496 38,000 339 Climbing Kansas City Center
Thu 01:10:02 PM 39.6625 -88.8944 227° Southwest 430 495 38,000  Level Kansas City Center
Thu 01:11:04 PM 39.5789 -89.0117 227° Southwest 437 503 38,000  Level Kansas City Center
Thu 01:12:06 PM 39.4958 -89.1308 228° Southwest 442 509 38,000  Level Kansas City Center
Thu 01:13:09 PM 39.4164 -89.2458 228° Southwest 444 511 38,000 48 Level Kansas City Center
Thu 01:14:11 PM 39.3136 -89.3856 226° Southwest 446 513 38,100 435 Climbing Kansas City Center
Thu 01:15:13 PM 39.2311 -89.5000 227° Southwest 440 506 38,900 629 Climbing Kansas City Center
Thu 01:16:15 PM 39.1422 -89.6203 226° Southwest 429 494 39,400 435 Climbing Kansas City Center
Thu 01:17:17 PM 39.0569 -89.7267 224° Southwest 429 494 39,800 290 Climbing Kansas City Center
Thu 01:18:19 PM 38.9639 -89.8422 224° Southwest 433 498 40,000 97 Climbing Kansas City Center
Thu 01:19:21 PM 38.8903 -89.9331 224° Southwest 436 502 40,000 48 Level Kansas City Center
Thu 01:20:23 PM 38.7872 -90.0636 225° Southwest 440 506 40,100 48 Climbing Kansas City Center
Thu 01:21:25 PM 38.6958 -90.1750 224° Southwest 448 516 40,100  Level Kansas City Center
Thu 01:22:27 PM 38.5967 -90.2917 223° Southwest 455 524 40,100 -48 Level Kansas City Center
Thu 01:23:29 PM 38.5119 -90.3992 225° Southwest 456 525 40,000  Descending Kansas City Center
Thu 01:24:31 PM 38.4217 -90.5092 224° Southwest 449 517 40,100 48 Climbing Kansas City Center
Thu 01:25:33 PM 38.3214 -90.6294 223° Southwest 452 520 40,100 -48 Level Kansas City Center
Thu 01:26:35 PM 38.2308 -90.7406 224° Southwest 452 520 40,000 -48 Descending Kansas City Center
Thu 01:27:37 PM 38.1406 -90.8517 224° Southwest 452 520 40,000 48 Level Kansas City Center
Thu 01:28:39 PM 38.0319 -90.9878 225° Southwest 456 525 40,100  Climbing Kansas City Center
Thu 01:29:41 PM 37.9481 -91.0950 225° Southwest 457 526 40,000  Descending Kansas City Center
Thu 01:30:43 PM 37.8561 -91.2108 225° Southwest 462 532 40,100  Climbing Kansas City Center
Thu 01:31:45 PM 37.7653 -91.3281 226° Southwest 464 534 40,000  Descending Kansas City Center
Thu 01:32:47 PM 37.6564 -91.4706 226° Southwest 466 536 40,100 48 Climbing Kansas City Center
Thu 01:33:49 PM 37.5653 -91.5911 226° Southwest 469 540 40,100  Level Kansas City Center
Thu 01:34:52 PM 37.4725 -91.7097 225° Southwest 471 542 40,100 -48 Level Kansas City Center
Thu 01:35:54 PM 37.3772 -91.8267 224° Southwest 473 544 40,000 -48 Descending Kansas City Center
Thu 01:36:56 PM 37.2811 -91.9439 224° Southwest 476 548 40,000 48 Level Kansas City Center
Thu 01:37:58 PM 37.1875 -92.0606 225° Southwest 474 545 40,100  Climbing Kansas City Center
Thu 01:39:00 PM 37.0897 -92.1792 224° Southwest 480 552 40,000  Descending Kansas City Center
Thu 01:40:02 PM 36.9950 -92.2953 224° Southwest 478 550 40,100 48 Climbing Kansas City Center
Thu 01:41:04 PM 36.8808 -92.4350 224° Southwest 475 547 40,100  Level Kansas City Center
Thu 01:42:06 PM 36.7836 -92.5458 222° Southwest 473 544 40,100 -48 Level Kansas City Center
Thu 01:43:08 PM 36.6872 -92.6581 223° Southwest 472 543 40,000  Descending Kansas City Center
Thu 01:44:02 PM 36.6047 -92.7531 223° Southwest 478 550 40,100  Climbing Memphis Center
Thu 01:45:02 PM 36.5086 -92.8689 224° Southwest 478 550 40,000 -50 Descending Memphis Center
Thu 01:46:02 PM 36.4167 -92.9822 225° Southwest 478 550 40,000  Level Memphis Center
Thu 01:47:02 PM 36.3247 -93.0925 224° Southwest 478 550 40,000  Level Memphis Center
Thu 01:48:02 PM 36.2367 -93.2028 225° Southwest 467 537 40,000 50 Level Memphis Center
Thu 01:49:02 PM 36.1464 -93.3181 226° Southwest 467 537 40,100  Climbing Memphis Center
Thu 01:50:02 PM 36.0583 -93.4328 227° Southwest 467 537 40,000 -50 Descending Memphis Center
Thu 01:51:02 PM 35.9700 -93.5450 226° Southwest 467 537 40,000  Level Memphis Center
Thu 01:52:02 PM 35.8836 -93.6594 227° Southwest 462 532 40,000  Level Memphis Center
Thu 01:53:02 PM 35.7969 -93.7764 228° Southwest 462 532 40,000 50 Level Memphis Center
Thu 01:54:02 PM 35.7083 -93.8903 226° Southwest 467 537 40,100  Climbing Memphis Center
Thu 01:55:02 PM 35.6194 -94.0014 225° Southwest 462 532 40,000 -50 Descending Memphis Center
Thu 01:56:02 PM 35.5308 -94.1097 225° Southwest 462 532 40,000  Level Memphis Center
Thu 01:57:02 PM 35.4400 -94.2203 225° Southwest 457 526 40,000  Level Memphis Center
Thu 01:58:02 PM 35.3489 -94.3308 225° Southwest 463 533 40,000 37 Level Memphis Center
Thu 01:59:43 PM 35.1936 -94.5275 226° Southwest 446 513 40,100  Climbing Fort Worth Center
Thu 02:00:43 PM 35.1044 -94.6397 226° Southwest 466 536 40,000 -50 Descending Fort Worth Center
Thu 02:01:43 PM 35.0150 -94.7492 225° Southwest 460 529 40,000  Level Fort Worth Center
Thu 02:02:43 PM 34.9256 -94.8583 225° Southwest 460 529 40,000  Level Fort Worth Center
Thu 02:03:43 PM 34.8400 -94.9672 226° Southwest 467 537 40,000 -650 Level Fort Worth Center
Thu 02:04:43 PM 34.7506 -95.0758 225° Southwest 467 537 38,700 -1,200 Descending Fort Worth Center
Thu 02:05:43 PM 34.6564 -95.1894 225° Southwest 467 537 37,600 -1,000 Descending Fort Worth Center
Thu 02:06:43 PM 34.5667 -95.2978 225° Southwest 467 537 36,700 -850 Descending Fort Worth Center
Thu 02:07:43 PM 34.4725 -95.4108 225° Southwest 473 544 35,900 -800 Descending Fort Worth Center
Thu 02:08:43 PM 34.3761 -95.5239 224° Southwest 473 544 35,100 -850 Descending Fort Worth Center
Thu 02:09:43 PM 34.2797 -95.6392 225° Southwest 479 551 34,200 -1,000 Descending Fort Worth Center
Thu 02:10:43 PM 34.1853 -95.7514 225° Southwest 479 551 33,100 -1,200 Descending Fort Worth Center
Thu 02:11:43 PM 34.0908 -95.8661 225° Southwest 479 551 31,800 -1,100 Descending Fort Worth Center
Thu 02:12:43 PM 34.0064 -95.9703 226° Southwest 467 537 30,900 -1,150 Descending Fort Worth Center
Thu 02:13:43 PM 33.9117 -96.0769 223° Southwest 467 537 29,500 -1,600 Descending Fort Worth Center
Thu 02:14:43 PM 33.8231 -96.1858 226° Southwest 467 537 27,700 -1,850 Descending Fort Worth Center
Thu 02:15:43 PM 33.7322 -96.2919 224° Southwest 462 532 25,800 -3,150 Descending Fort Worth Center
Thu 02:16:43 PM 33.6350 -96.4056 224° Southwest 452 520 21,400 -4,300 Descending Fort Worth Center
Thu 02:17:43 PM 33.5522 -96.4911 221° Southwest 433 498 17,200 -4,150 Descending Fort Worth Center
Thu 02:18:43 PM 33.4797 -96.5667 221° Southwest 379 436 13,100 -3,050 Descending Fort Worth Center
Thu 02:19:43 PM 33.4197 -96.6419 226° Southwest 324 373 11,100 -1,700 Descending Fort Worth Center
Thu 02:20:43 PM 33.3783 -96.7194 237° Southwest 300 345 9,700 -1,300 Descending Fort Worth Center
Thu 02:21:43 PM 33.3725 -96.8114 266° West 276 318 8,500 -1,000 Descending Fort Worth Center
Thu 02:22:43 PM 33.3750 -96.8936 272° West 260 299 7,700 -850 Descending Fort Worth Center
Thu 02:23:43 PM 33.3753 -96.9831 270° West 255 293 6,800 -800 Descending Fort Worth Center
Thu 02:24:43 PM 33.3714 -97.0628 267° West 272 313 6,100 -737 Descending Fort Worth Center
Thu 02:25:37 PM 33.3667 -97.1500 266° West 254 292 5,400 -737 Descending Dallas / Fort Worth TRACON
Thu 02:26:37 PM 33.3667 -97.2333 270° West 253 291 4,700 -684 Descending Dallas / Fort Worth TRACON
Thu 02:27:31 PM 33.3167 -97.2667 209° Southwest 240 276 4,100 -421 Descending Dallas / Fort Worth TRACON
Thu 02:28:31 PM 33.2500 -97.3000 203° Southwest 220 253 3,900 -100 Descending Dallas / Fort Worth TRACON
Thu 02:29:31 PM 33.2000 -97.2833 164° South 215 247 3,900  Level Dallas / Fort Worth TRACON
Thu 02:30:31 PM 33.1333 -97.2833 180° South 228 262 3,900  Level Dallas / Fort Worth TRACON
Thu 02:31:37 PM 33.0667 -97.2667 168° South 239 275 3,900  Level Dallas / Fort Worth TRACON
Thu 02:32:37 PM 33.0000 -97.2667 180° South 229 264 3,900 -150 Level Dallas / Fort Worth TRACON
Thu 02:33:37 PM 32.9333 -97.2500 168° South 217 250 3,600 -550 Descending Dallas / Fort Worth TRACON
Thu 02:34:37 PM 32.8833 -97.2167 151° Southeast 227 261 2,800 -650 Descending Dallas / Fort Worth TRACON
Thu 02:35:37 PM 32.8333 -97.1833 151° Southeast 210 242 2,300 -350 Descending Dallas / Fort Worth TRACON
Thu 02:36:37 PM 32.7833 -97.1500 151° Southeast 202 232 2,100 -263 Descending Dallas / Fort Worth TRACON
Thu 02:37:31 PM 32.7333 -97.1167 151° Southeast 180 207 1,800 -526 Descending Dallas / Fort Worth TRACON
Thu 02:38:31 PM 32.7000 -97.1000 157° South 140 161 1,100 -700 Descending Dallas / Fort Worth TRACON

Login

Don't have an account? Register now (free) for customized features, flight alerts, and more!